sensor_id;sensor_type;location;lat;lon;timestamp;P1;durP1;ratioP1;P2;durP2;ratioP2
3207;SDS011;1616;52.394;9.756;2024-02-14T00:00:06;1.30;;;1.13;;
3207;SDS011;1616;52.394;9.756;2024-02-14T00:02:35;1.37;;;1.20;;
3207;SDS011;1616;52.394;9.756;2024-02-14T00:05:02;5.60;;;1.40;;
3207;SDS011;1616;52.394;9.756;2024-02-14T00:07:28;1.17;;;1.00;;
3207;SDS011;1616;52.394;9.756;2024-02-14T00:09:54;1.27;;;1.10;;
3207;SDS011;1616;52.394;9.756;2024-02-14T00:12:19;4.03;;;1.23;;
3207;SDS011;1616;52.394;9.756;2024-02-14T00:14:45;2.23;;;1.10;;
3207;SDS011;1616;52.394;9.756;2024-02-14T00:17:11;3.63;;;1.00;;
3207;SDS011;1616;52.394;9.756;2024-02-14T00:19:37;1.63;;;1.20;;
3207;SDS011;1616;52.394;9.756;2024-02-14T00:22:03;1.87;;;1.10;;
3207;SDS011;1616;52.394;9.756;2024-02-14T00:24:29;6.20;;;1.37;;
3207;SDS011;1616;52.394;9.756;2024-02-14T00:26:54;1.50;;;1.20;;
3207;SDS011;1616;52.394;9.756;2024-02-14T00:29:21;1.40;;;1.17;;
3207;SDS011;1616;52.394;9.756;2024-02-14T00:31:49;2.40;;;1.10;;
3207;SDS011;1616;52.394;9.756;2024-02-14T00:34:14;4.33;;;1.27;;
3207;SDS011;1616;52.394;9.756;2024-02-14T00:36:40;3.87;;;1.60;;
3207;SDS011;1616;52.394;9.756;2024-02-14T00:39:05;3.13;;;1.50;;
3207;SDS011;1616;52.394;9.756;2024-02-14T00:41:35;2.27;;;1.07;;
3207;SDS011;1616;52.394;9.756;2024-02-14T00:44:01;2.80;;;1.10;;
3207;SDS011;1616;52.394;9.756;2024-02-14T00:46:28;1.20;;;0.90;;
3207;SDS011;1616;52.394;9.756;2024-02-14T00:48:55;3.03;;;1.00;;
3207;SDS011;1616;52.394;9.756;2024-02-14T00:51:21;3.00;;;1.10;;
3207;SDS011;1616;52.394;9.756;2024-02-14T00:53:47;1.10;;;0.97;;
3207;SDS011;1616;52.394;9.756;2024-02-14T00:56:12;1.87;;;1.00;;
3207;SDS011;1616;52.394;9.756;2024-02-14T00:58:38;3.10;;;1.40;;
3207;SDS011;1616;52.394;9.756;2024-02-14T01:01:04;1.27;;;1.10;;
3207;SDS011;1616;52.394;9.756;2024-02-14T01:03:30;2.33;;;1.00;;
3207;SDS011;1616;52.394;9.756;2024-02-14T01:05:56;2.40;;;1.00;;
3207;SDS011;1616;52.394;9.756;2024-02-14T01:08:23;2.70;;;1.27;;
3207;SDS011;1616;52.394;9.756;2024-02-14T01:10:49;3.03;;;1.50;;
3207;SDS011;1616;52.394;9.756;2024-02-14T01:13:18;2.20;;;1.50;;
3207;SDS011;1616;52.394;9.756;2024-02-14T01:15:44;1.37;;;1.00;;
3207;SDS011;1616;52.394;9.756;2024-02-14T01:18:09;1.83;;;1.40;;
3207;SDS011;1616;52.394;9.756;2024-02-14T01:20:35;1.83;;;1.13;;
3207;SDS011;1616;52.394;9.756;2024-02-14T01:23:02;2.07;;;1.20;;
3207;SDS011;1616;52.394;9.756;2024-02-14T01:25:28;1.50;;;1.20;;
3207;SDS011;1616;52.394;9.756;2024-02-14T01:27:54;1.23;;;1.10;;
3207;SDS011;1616;52.394;9.756;2024-02-14T01:30:21;1.40;;;1.30;;
3207;SDS011;1616;52.394;9.756;2024-02-14T01:32:46;2.83;;;1.50;;
3207;SDS011;1616;52.394;9.756;2024-02-14T01:35:12;3.77;;;1.37;;
3207;SDS011;1616;52.394;9.756;2024-02-14T01:37:38;4.03;;;1.20;;
3207;SDS011;1616;52.394;9.756;2024-02-14T01:40:05;1.87;;;1.30;;
3207;SDS011;1616;52.394;9.756;2024-02-14T01:42:32;4.60;;;1.60;;
3207;SDS011;1616;52.394;9.756;2024-02-14T01:44:58;1.27;;;1.10;;
3207;SDS011;1616;52.394;9.756;2024-02-14T01:47:24;2.53;;;1.23;;
3207;SDS011;1616;52.394;9.756;2024-02-14T01:49:50;6.00;;;1.27;;
3207;SDS011;1616;52.394;9.756;2024-02-14T01:52:16;5.73;;;1.20;;
3207;SDS011;1616;52.394;9.756;2024-02-14T01:54:43;6.83;;;1.80;;
3207;SDS011;1616;52.394;9.756;2024-02-14T01:57:09;1.40;;;1.30;;
3207;SDS011;1616;52.394;9.756;2024-02-14T01:59:36;10.30;;;1.43;;
3207;SDS011;1616;52.394;9.756;2024-02-14T02:02:02;3.63;;;1.57;;
3207;SDS011;1616;52.394;9.756;2024-02-14T02:04:32;5.10;;;1.30;;
3207;SDS011;1616;52.394;9.756;2024-02-14T02:06:58;1.53;;;1.40;;
3207;SDS011;1616;52.394;9.756;2024-02-14T02:09:24;3.90;;;1.50;;
3207;SDS011;1616;52.394;9.756;2024-02-14T02:11:50;3.70;;;1.60;;
3207;SDS011;1616;52.394;9.756;2024-02-14T02:14:19;2.13;;;1.30;;
3207;SDS011;1616;52.394;9.756;2024-02-14T02:16:46;3.63;;;1.70;;
3207;SDS011;1616;52.394;9.756;2024-02-14T02:19:12;4.87;;;1.47;;
3207;SDS011;1616;52.394;9.756;2024-02-14T02:21:41;3.60;;;1.50;;
3207;SDS011;1616;52.394;9.756;2024-02-14T02:24:08;1.40;;;1.17;;
3207;SDS011;1616;52.394;9.756;2024-02-14T02:26:33;1.47;;;1.30;;
3207;SDS011;1616;52.394;9.756;2024-02-14T02:28:59;2.93;;;1.50;;
3207;SDS011;1616;52.394;9.756;2024-02-14T02:31:25;2.70;;;1.40;;
3207;SDS011;1616;52.394;9.756;2024-02-14T02:33:51;1.50;;;1.40;;
3207;SDS011;1616;52.394;9.756;2024-02-14T02:36:17;2.63;;;1.67;;
3207;SDS011;1616;52.394;9.756;2024-02-14T02:38:43;2.33;;;1.60;;
3207;SDS011;1616;52.394;9.756;2024-02-14T02:41:09;2.93;;;1.70;;
3207;SDS011;1616;52.394;9.756;2024-02-14T02:43:35;1.83;;;1.70;;
3207;SDS011;1616;52.394;9.756;2024-02-14T02:46:01;5.07;;;2.20;;
3207;SDS011;1616;52.394;9.756;2024-02-14T02:48:27;2.67;;;2.13;;
3207;SDS011;1616;52.394;9.756;2024-02-14T02:50:53;3.43;;;2.13;;
3207;SDS011;1616;52.394;9.756;2024-02-14T02:53:18;8.90;;;2.60;;
3207;SDS011;1616;52.394;9.756;2024-02-14T02:55:44;9.67;;;4.20;;
3207;SDS011;1616;52.394;9.756;2024-02-14T02:58:10;2.73;;;2.20;;
3207;SDS011;1616;52.394;9.756;2024-02-14T03:00:37;2.77;;;1.73;;
3207;SDS011;1616;52.394;9.756;2024-02-14T03:03:02;4.93;;;2.50;;
3207;SDS011;1616;52.394;9.756;2024-02-14T03:05:30;4.47;;;2.17;;
3207;SDS011;1616;52.394;9.756;2024-02-14T03:07:59;3.07;;;2.50;;
3207;SDS011;1616;52.394;9.756;2024-02-14T03:10:25;4.50;;;2.50;;
3207;SDS011;1616;52.394;9.756;2024-02-14T03:12:51;2.40;;;2.20;;
3207;SDS011;1616;52.394;9.756;2024-02-14T03:15:17;3.40;;;2.60;;
3207;SDS011;1616;52.394;9.756;2024-02-14T03:17:44;3.57;;;2.37;;
3207;SDS011;1616;52.394;9.756;2024-02-14T03:20:11;6.03;;;2.07;;
3207;SDS011;1616;52.394;9.756;2024-02-14T03:22:38;3.70;;;2.37;;
3207;SDS011;1616;52.394;9.756;2024-02-14T03:25:19;6.77;;;2.30;;
3207;SDS011;1616;52.394;9.756;2024-02-14T03:27:47;1.83;;;1.70;;
3207;SDS011;1616;52.394;9.756;2024-02-14T03:30:14;2.20;;;2.00;;
3207;SDS011;1616;52.394;9.756;2024-02-14T03:32:41;3.47;;;2.43;;
3207;SDS011;1616;52.394;9.756;2024-02-14T03:35:14;4.07;;;2.27;;
3207;SDS011;1616;52.394;9.756;2024-02-14T03:37:43;4.83;;;2.33;;
3207;SDS011;1616;52.394;9.756;2024-02-14T03:40:12;4.37;;;2.80;;
3207;SDS011;1616;52.394;9.756;2024-02-14T03:42:38;2.53;;;2.33;;
3207;SDS011;1616;52.394;9.756;2024-02-14T03:45:05;3.40;;;2.37;;
3207;SDS011;1616;52.394;9.756;2024-02-14T03:47:35;3.03;;;2.53;;
3207;SDS011;1616;52.394;9.756;2024-02-14T03:50:01;3.20;;;2.03;;
3207;SDS011;1616;52.394;9.756;2024-02-14T03:52:29;3.50;;;2.47;;
3207;SDS011;1616;52.394;9.756;2024-02-14T03:54:57;4.60;;;2.93;;
3207;SDS011;1616;52.394;9.756;2024-02-14T03:57:24;3.67;;;1.90;;
3207;SDS011;1616;52.394;9.756;2024-02-14T03:59:50;4.50;;;2.40;;
3207;SDS011;1616;52.394;9.756;2024-02-14T04:02:17;2.40;;;2.20;;
3207;SDS011;1616;52.394;9.756;2024-02-14T04:04:43;3.27;;;2.97;;
3207;SDS011;1616;52.394;9.756;2024-02-14T04:07:11;4.47;;;2.13;;
3207;SDS011;1616;52.394;9.756;2024-02-14T04:09:37;2.50;;;1.90;;
3207;SDS011;1616;52.394;9.756;2024-02-14T04:12:03;6.50;;;2.43;;
3207;SDS011;1616;52.394;9.756;2024-02-14T04:14:30;2.60;;;2.33;;
3207;SDS011;1616;52.394;9.756;2024-02-14T04:16:55;3.80;;;1.93;;
3207;SDS011;1616;52.394;9.756;2024-02-14T04:19:21;2.70;;;2.50;;
3207;SDS011;1616;52.394;9.756;2024-02-14T04:21:46;3.70;;;2.43;;
3207;SDS011;1616;52.394;9.756;2024-02-14T04:24:12;4.67;;;2.70;;
3207;SDS011;1616;52.394;9.756;2024-02-14T04:26:38;2.43;;;1.90;;
3207;SDS011;1616;52.394;9.756;2024-02-14T04:29:04;3.40;;;2.03;;
3207;SDS011;1616;52.394;9.756;2024-02-14T04:31:29;4.23;;;2.17;;
3207;SDS011;1616;52.394;9.756;2024-02-14T04:33:56;3.20;;;2.30;;
3207;SDS011;1616;52.394;9.756;2024-02-14T04:36:22;4.00;;;2.00;;
3207;SDS011;1616;52.394;9.756;2024-02-14T04:38:48;2.60;;;2.40;;
3207;SDS011;1616;52.394;9.756;2024-02-14T04:41:14;5.00;;;2.00;;
3207;SDS011;1616;52.394;9.756;2024-02-14T04:43:40;2.80;;;1.87;;
3207;SDS011;1616;52.394;9.756;2024-02-14T04:46:06;4.57;;;2.00;;
3207;SDS011;1616;52.394;9.756;2024-02-14T04:48:34;2.37;;;2.17;;
3207;SDS011;1616;52.394;9.756;2024-02-14T04:51:01;6.47;;;2.27;;
3207;SDS011;1616;52.394;9.756;2024-02-14T04:53:27;2.50;;;2.33;;
3207;SDS011;1616;52.394;9.756;2024-02-14T04:55:52;5.10;;;2.30;;
3207;SDS011;1616;52.394;9.756;2024-02-14T04:58:19;3.47;;;2.50;;
3207;SDS011;1616;52.394;9.756;2024-02-14T05:00:45;3.23;;;2.43;;
3207;SDS011;1616;52.394;9.756;2024-02-14T05:03:10;3.70;;;2.60;;
3207;SDS011;1616;52.394;9.756;2024-02-14T05:05:36;8.73;;;4.03;;
3207;SDS011;1616;52.394;9.756;2024-02-14T05:08:03;7.73;;;2.53;;
3207;SDS011;1616;52.394;9.756;2024-02-14T05:10:29;3.40;;;3.10;;
3207;SDS011;1616;52.394;9.756;2024-02-14T05:12:55;4.10;;;3.73;;
3207;SDS011;1616;52.394;9.756;2024-02-14T05:15:24;4.17;;;2.50;;
3207;SDS011;1616;52.394;9.756;2024-02-14T05:17:49;4.37;;;2.27;;
3207;SDS011;1616;52.394;9.756;2024-02-14T05:20:15;3.67;;;2.70;;
3207;SDS011;1616;52.394;9.756;2024-02-14T05:22:41;2.97;;;2.77;;
3207;SDS011;1616;52.394;9.756;2024-02-14T05:25:07;10.67;;;3.53;;
3207;SDS011;1616;52.394;9.756;2024-02-14T05:27:34;5.60;;;3.70;;
3207;SDS011;1616;52.394;9.756;2024-02-14T05:30:01;3.23;;;2.73;;
3207;SDS011;1616;52.394;9.756;2024-02-14T05:32:31;4.63;;;2.97;;
3207;SDS011;1616;52.394;9.756;2024-02-14T05:34:57;6.83;;;3.53;;
3207;SDS011;1616;52.394;9.756;2024-02-14T05:37:23;4.50;;;3.40;;
3207;SDS011;1616;52.394;9.756;2024-02-14T05:39:50;3.33;;;3.03;;
3207;SDS011;1616;52.394;9.756;2024-02-14T05:42:16;2.50;;;2.30;;
3207;SDS011;1616;52.394;9.756;2024-02-14T05:44:41;7.40;;;2.93;;
3207;SDS011;1616;52.394;9.756;2024-02-14T05:47:08;3.70;;;2.73;;
3207;SDS011;1616;52.394;9.756;2024-02-14T05:49:35;5.43;;;2.93;;
3207;SDS011;1616;52.394;9.756;2024-02-14T05:52:00;6.23;;;2.50;;
3207;SDS011;1616;52.394;9.756;2024-02-14T05:54:26;12.90;;;3.20;;
3207;SDS011;1616;52.394;9.756;2024-02-14T05:56:52;7.50;;;2.63;;
3207;SDS011;1616;52.394;9.756;2024-02-14T05:59:18;2.83;;;2.63;;
3207;SDS011;1616;52.394;9.756;2024-02-14T06:01:43;3.30;;;3.00;;
3207;SDS011;1616;52.394;9.756;2024-02-14T06:04:09;7.70;;;2.93;;
3207;SDS011;1616;52.394;9.756;2024-02-14T06:06:34;3.20;;;2.90;;
3207;SDS011;1616;52.394;9.756;2024-02-14T06:09:00;3.70;;;2.20;;
3207;SDS011;1616;52.394;9.756;2024-02-14T06:11:25;9.43;;;2.50;;
3207;SDS011;1616;52.394;9.756;2024-02-14T06:13:51;3.17;;;2.97;;
3207;SDS011;1616;52.394;9.756;2024-02-14T06:16:17;3.80;;;2.80;;
3207;SDS011;1616;52.394;9.756;2024-02-14T06:18:42;7.00;;;2.73;;
3207;SDS011;1616;52.394;9.756;2024-02-14T06:21:09;3.67;;;2.90;;
3207;SDS011;1616;52.394;9.756;2024-02-14T06:23:35;4.33;;;3.10;;
3207;SDS011;1616;52.394;9.756;2024-02-14T06:26:02;3.10;;;1.97;;
3207;SDS011;1616;52.394;9.756;2024-02-14T06:28:29;5.40;;;2.40;;
3207;SDS011;1616;52.394;9.756;2024-02-14T06:30:54;2.50;;;2.30;;
3207;SDS011;1616;52.394;9.756;2024-02-14T06:33:20;6.07;;;2.70;;
3207;SDS011;1616;52.394;9.756;2024-02-14T06:35:46;2.67;;;2.27;;
3207;SDS011;1616;52.394;9.756;2024-02-14T06:38:11;2.30;;;2.03;;
3207;SDS011;1616;52.394;9.756;2024-02-14T06:40:37;2.63;;;2.20;;
3207;SDS011;1616;52.394;9.756;2024-02-14T06:43:03;4.40;;;2.90;;
3207;SDS011;1616;52.394;9.756;2024-02-14T06:45:29;3.07;;;2.87;;
3207;SDS011;1616;52.394;9.756;2024-02-14T06:47:54;2.73;;;2.47;;
3207;SDS011;1616;52.394;9.756;2024-02-14T06:50:20;3.83;;;2.53;;
3207;SDS011;1616;52.394;9.756;2024-02-14T06:52:47;3.00;;;2.20;;
3207;SDS011;1616;52.394;9.756;2024-02-14T06:55:12;2.73;;;2.53;;
3207;SDS011;1616;52.394;9.756;2024-02-14T06:57:38;3.07;;;2.53;;
3207;SDS011;1616;52.394;9.756;2024-02-14T07:00:04;2.60;;;2.40;;
3207;SDS011;1616;52.394;9.756;2024-02-14T07:02:31;2.50;;;2.30;;
3207;SDS011;1616;52.394;9.756;2024-02-14T07:04:57;4.70;;;3.23;;
3207;SDS011;1616;52.394;9.756;2024-02-14T07:07:23;5.33;;;3.03;;
3207;SDS011;1616;52.394;9.756;2024-02-14T07:09:48;5.73;;;1.90;;
3207;SDS011;1616;52.394;9.756;2024-02-14T07:12:14;5.23;;;2.23;;
3207;SDS011;1616;52.394;9.756;2024-02-14T07:14:40;2.00;;;1.80;;
3207;SDS011;1616;52.394;9.756;2024-02-14T07:17:06;3.10;;;2.50;;
3207;SDS011;1616;52.394;9.756;2024-02-14T07:19:32;5.70;;;1.77;;
3207;SDS011;1616;52.394;9.756;2024-02-14T07:21:58;2.93;;;2.70;;
3207;SDS011;1616;52.394;9.756;2024-02-14T07:24:24;2.90;;;2.03;;
3207;SDS011;1616;52.394;9.756;2024-02-14T07:26:49;1.90;;;1.80;;
3207;SDS011;1616;52.394;9.756;2024-02-14T07:29:15;3.37;;;2.13;;
3207;SDS011;1616;52.394;9.756;2024-02-14T07:31:40;7.20;;;2.73;;
3207;SDS011;1616;52.394;9.756;2024-02-14T07:34:06;2.00;;;1.90;;
3207;SDS011;1616;52.394;9.756;2024-02-14T07:36:32;2.07;;;1.97;;
3207;SDS011;1616;52.394;9.756;2024-02-14T07:38:59;1.90;;;1.80;;
3207;SDS011;1616;52.394;9.756;2024-02-14T07:41:24;2.23;;;2.00;;
3207;SDS011;1616;52.394;9.756;2024-02-14T07:43:50;2.23;;;1.87;;
3207;SDS011;1616;52.394;9.756;2024-02-14T07:46:19;2.23;;;2.03;;
3207;SDS011;1616;52.394;9.756;2024-02-14T07:48:45;1.90;;;1.73;;
3207;SDS011;1616;52.394;9.756;2024-02-14T07:51:13;4.33;;;2.43;;
3207;SDS011;1616;52.394;9.756;2024-02-14T07:53:39;1.93;;;1.73;;
3207;SDS011;1616;52.394;9.756;2024-02-14T07:56:05;2.00;;;1.90;;
3207;SDS011;1616;52.394;9.756;2024-02-14T07:58:31;2.27;;;2.10;;
3207;SDS011;1616;52.394;9.756;2024-02-14T08:00:57;2.00;;;1.80;;
3207;SDS011;1616;52.394;9.756;2024-02-14T08:03:22;2.73;;;1.90;;
3207;SDS011;1616;52.394;9.756;2024-02-14T08:05:49;2.23;;;2.13;;
3207;SDS011;1616;52.394;9.756;2024-02-14T08:08:16;4.43;;;2.20;;
3207;SDS011;1616;52.394;9.756;2024-02-14T08:10:41;1.97;;;1.80;;
3207;SDS011;1616;52.394;9.756;2024-02-14T08:13:07;2.40;;;2.20;;
3207;SDS011;1616;52.394;9.756;2024-02-14T08:15:32;2.60;;;1.83;;
3207;SDS011;1616;52.394;9.756;2024-02-14T08:17:58;2.00;;;1.90;;
3207;SDS011;1616;52.394;9.756;2024-02-14T08:20:24;2.60;;;2.40;;
3207;SDS011;1616;52.394;9.756;2024-02-14T08:22:50;2.10;;;1.90;;
3207;SDS011;1616;52.394;9.756;2024-02-14T08:25:16;2.77;;;1.73;;
3207;SDS011;1616;52.394;9.756;2024-02-14T08:27:42;3.03;;;1.67;;
3207;SDS011;1616;52.394;9.756;2024-02-14T08:30:07;4.70;;;1.70;;
3207;SDS011;1616;52.394;9.756;2024-02-14T08:32:34;1.60;;;1.50;;
3207;SDS011;1616;52.394;9.756;2024-02-14T08:34:59;1.60;;;1.50;;
3207;SDS011;1616;52.394;9.756;2024-02-14T08:37:26;1.30;;;1.13;;
3207;SDS011;1616;52.394;9.756;2024-02-14T08:39:52;1.20;;;1.10;;
3207;SDS011;1616;52.394;9.756;2024-02-14T08:42:18;1.20;;;1.10;;
3207;SDS011;1616;52.394;9.756;2024-02-14T08:44:44;1.67;;;0.93;;
3207;SDS011;1616;52.394;9.756;2024-02-14T08:47:09;1.27;;;1.17;;
3207;SDS011;1616;52.394;9.756;2024-02-14T08:49:35;1.13;;;0.90;;
3207;SDS011;1616;52.394;9.756;2024-02-14T08:52:01;2.03;;;1.30;;
3207;SDS011;1616;52.394;9.756;2024-02-14T08:54:27;2.33;;;1.20;;
3207;SDS011;1616;52.394;9.756;2024-02-14T08:56:53;1.30;;;1.13;;
3207;SDS011;1616;52.394;9.756;2024-02-14T08:59:21;1.20;;;1.00;;
3207;SDS011;1616;52.394;9.756;2024-02-14T09:01:47;1.30;;;1.20;;
3207;SDS011;1616;52.394;9.756;2024-02-14T09:04:13;1.40;;;1.30;;
3207;SDS011;1616;52.394;9.756;2024-02-14T09:06:39;1.90;;;1.70;;
3207;SDS011;1616;52.394;9.756;2024-02-14T09:09:06;1.33;;;1.23;;
3207;SDS011;1616;52.394;9.756;2024-02-14T09:11:32;1.60;;;1.50;;
3207;SDS011;1616;52.394;9.756;2024-02-14T09:13:57;1.50;;;1.37;;
3207;SDS011;1616;52.394;9.756;2024-02-14T09:16:29;2.60;;;1.43;;
3207;SDS011;1616;52.394;9.756;2024-02-14T09:18:56;1.90;;;1.80;;
3207;SDS011;1616;52.394;9.756;2024-02-14T09:21:23;2.83;;;2.60;;
3207;SDS011;1616;52.394;9.756;2024-02-14T09:23:48;2.17;;;2.03;;
3207;SDS011;1616;52.394;9.756;2024-02-14T09:26:14;2.47;;;2.27;;
3207;SDS011;1616;52.394;9.756;2024-02-14T09:28:42;3.40;;;3.00;;
3207;SDS011;1616;52.394;9.756;2024-02-14T09:31:08;4.27;;;3.97;;
3207;SDS011;1616;52.394;9.756;2024-02-14T09:33:36;5.13;;;4.73;;
3207;SDS011;1616;52.394;9.756;2024-02-14T09:36:02;5.30;;;4.80;;
3207;SDS011;1616;52.394;9.756;2024-02-14T09:38:29;4.40;;;4.10;;
3207;SDS011;1616;52.394;9.756;2024-02-14T09:40:58;5.07;;;4.67;;
3207;SDS011;1616;52.394;9.756;2024-02-14T09:43:44;6.17;;;5.87;;
3207;SDS011;1616;52.394;9.756;2024-02-14T09:46:13;6.27;;;5.87;;
3207;SDS011;1616;52.394;9.756;2024-02-14T09:48:43;6.40;;;6.00;;
3207;SDS011;1616;52.394;9.756;2024-02-14T09:51:10;7.10;;;6.70;;
3207;SDS011;1616;52.394;9.756;2024-02-14T09:53:38;6.70;;;6.20;;
3207;SDS011;1616;52.394;9.756;2024-02-14T09:56:04;7.10;;;6.60;;
3207;SDS011;1616;52.394;9.756;2024-02-14T09:58:31;8.00;;;7.30;;
3207;SDS011;1616;52.394;9.756;2024-02-14T10:00:59;6.77;;;6.40;;
3207;SDS011;1616;52.394;9.756;2024-02-14T10:03:25;5.13;;;4.93;;
3207;SDS011;1616;52.394;9.756;2024-02-14T10:05:51;6.50;;;6.00;;
3207;SDS011;1616;52.394;9.756;2024-02-14T10:08:18;5.77;;;5.37;;
3207;SDS011;1616;52.394;9.756;2024-02-14T10:10:46;6.90;;;6.40;;
3207;SDS011;1616;52.394;9.756;2024-02-14T10:13:12;6.20;;;5.70;;
3207;SDS011;1616;52.394;9.756;2024-02-14T10:15:37;7.43;;;6.93;;
3207;SDS011;1616;52.394;9.756;2024-02-14T10:18:03;6.10;;;5.70;;
3207;SDS011;1616;52.394;9.756;2024-02-14T10:20:29;5.17;;;4.77;;
3207;SDS011;1616;52.394;9.756;2024-02-14T10:23:02;6.57;;;6.13;;
3207;SDS011;1616;52.394;9.756;2024-02-14T10:25:29;5.50;;;5.10;;
3207;SDS011;1616;52.394;9.756;2024-02-14T10:27:56;5.77;;;5.27;;
3207;SDS011;1616;52.394;9.756;2024-02-14T10:30:22;5.23;;;5.03;;
3207;SDS011;1616;52.394;9.756;2024-02-14T10:32:48;5.40;;;5.07;;
3207;SDS011;1616;52.394;9.756;2024-02-14T10:35:14;4.50;;;4.30;;
3207;SDS011;1616;52.394;9.756;2024-02-14T10:37:41;5.00;;;4.70;;
3207;SDS011;1616;52.394;9.756;2024-02-14T10:40:07;8.40;;;4.60;;
3207;SDS011;1616;52.394;9.756;2024-02-14T10:42:34;5.40;;;4.37;;
3207;SDS011;1616;52.394;9.756;2024-02-14T10:45:03;4.47;;;4.03;;
3207;SDS011;1616;52.394;9.756;2024-02-14T10:47:40;3.93;;;3.73;;
3207;SDS011;1616;52.394;9.756;2024-02-14T10:50:10;4.73;;;4.33;;
3207;SDS011;1616;52.394;9.756;2024-02-14T10:52:39;4.53;;;4.33;;
3207;SDS011;1616;52.394;9.756;2024-02-14T10:55:06;3.80;;;3.60;;
3207;SDS011;1616;52.394;9.756;2024-02-14T10:57:34;4.20;;;3.90;;
3207;SDS011;1616;52.394;9.756;2024-02-14T11:00:03;4.63;;;3.93;;
3207;SDS011;1616;52.394;9.756;2024-02-14T11:02:34;3.70;;;3.50;;
3207;SDS011;1616;52.394;9.756;2024-02-14T11:05:02;3.67;;;3.47;;
3207;SDS011;1616;52.394;9.756;2024-02-14T11:07:28;3.93;;;3.70;;
3207;SDS011;1616;52.394;9.756;2024-02-14T11:10:00;3.77;;;3.47;;
3207;SDS011;1616;52.394;9.756;2024-02-14T11:12:36;3.60;;;3.40;;
3207;SDS011;1616;52.394;9.756;2024-02-14T11:15:17;3.67;;;3.37;;
3207;SDS011;1616;52.394;9.756;2024-02-14T11:17:45;3.97;;;3.77;;
3207;SDS011;1616;52.394;9.756;2024-02-14T11:20:12;3.93;;;3.73;;
3207;SDS011;1616;52.394;9.756;2024-02-14T11:22:39;4.13;;;3.90;;
3207;SDS011;1616;52.394;9.756;2024-02-14T11:25:14;4.27;;;3.90;;
3207;SDS011;1616;52.394;9.756;2024-02-14T11:27:46;4.03;;;3.83;;
3207;SDS011;1616;52.394;9.756;2024-02-14T11:30:12;5.40;;;3.60;;
3207;SDS011;1616;52.394;9.756;2024-02-14T11:32:40;3.40;;;3.20;;
3207;SDS011;1616;52.394;9.756;2024-02-14T11:35:07;5.60;;;3.00;;
3207;SDS011;1616;52.394;9.756;2024-02-14T11:37:37;3.97;;;3.77;;
3207;SDS011;1616;52.394;9.756;2024-02-14T11:40:03;3.10;;;2.90;;
3207;SDS011;1616;52.394;9.756;2024-02-14T11:42:32;3.47;;;3.27;;
3207;SDS011;1616;52.394;9.756;2024-02-14T11:44:58;4.80;;;4.30;;
3207;SDS011;1616;52.394;9.756;2024-02-14T11:47:24;3.07;;;2.87;;
3207;SDS011;1616;52.394;9.756;2024-02-14T11:49:49;3.47;;;3.27;;
3207;SDS011;1616;52.394;9.756;2024-02-14T11:52:15;4.10;;;3.80;;
3207;SDS011;1616;52.394;9.756;2024-02-14T11:54:48;4.97;;;3.63;;
3207;SDS011;1616;52.394;9.756;2024-02-14T11:57:16;4.13;;;3.93;;
3207;SDS011;1616;52.394;9.756;2024-02-14T11:59:43;3.90;;;3.70;;
3207;SDS011;1616;52.394;9.756;2024-02-14T12:02:12;3.97;;;3.70;;
3207;SDS011;1616;52.394;9.756;2024-02-14T12:04:38;3.00;;;2.87;;
3207;SDS011;1616;52.394;9.756;2024-02-14T12:07:03;4.17;;;3.87;;
3207;SDS011;1616;52.394;9.756;2024-02-14T12:09:32;4.30;;;3.90;;
3207;SDS011;1616;52.394;9.756;2024-02-14T12:11:58;4.77;;;4.47;;
3207;SDS011;1616;52.394;9.756;2024-02-14T12:14:23;3.57;;;3.37;;
3207;SDS011;1616;52.394;9.756;2024-02-14T12:17:03;4.50;;;4.30;;
3207;SDS011;1616;52.394;9.756;2024-02-14T12:19:33;4.37;;;4.00;;
3207;SDS011;1616;52.394;9.756;2024-02-14T12:22:00;3.97;;;3.77;;
3207;SDS011;1616;52.394;9.756;2024-02-14T12:24:27;5.30;;;5.00;;
3207;SDS011;1616;52.394;9.756;2024-02-14T12:26:54;4.90;;;4.50;;
3207;SDS011;1616;52.394;9.756;2024-02-14T12:29:19;4.97;;;4.60;;
3207;SDS011;1616;52.394;9.756;2024-02-14T12:31:48;5.63;;;5.13;;
3207;SDS011;1616;52.394;9.756;2024-02-14T12:34:13;6.40;;;6.00;;
3207;SDS011;1616;52.394;9.756;2024-02-14T12:36:40;10.77;;;5.13;;
3207;SDS011;1616;52.394;9.756;2024-02-14T12:39:05;5.60;;;5.40;;
3207;SDS011;1616;52.394;9.756;2024-02-14T12:41:31;5.17;;;4.87;;
3207;SDS011;1616;52.394;9.756;2024-02-14T12:43:59;6.63;;;5.37;;
3207;SDS011;1616;52.394;9.756;2024-02-14T12:46:26;6.20;;;5.80;;
3207;SDS011;1616;52.394;9.756;2024-02-14T12:48:53;5.90;;;5.60;;
3207;SDS011;1616;52.394;9.756;2024-02-14T12:51:19;6.40;;;6.00;;
3207;SDS011;1616;52.394;9.756;2024-02-14T12:53:45;6.13;;;5.73;;
3207;SDS011;1616;52.394;9.756;2024-02-14T12:56:10;6.20;;;5.90;;
3207;SDS011;1616;52.394;9.756;2024-02-14T12:58:36;6.03;;;5.53;;
3207;SDS011;1616;52.394;9.756;2024-02-14T13:01:02;7.07;;;6.57;;
3207;SDS011;1616;52.394;9.756;2024-02-14T13:03:31;6.90;;;6.43;;
3207;SDS011;1616;52.394;9.756;2024-02-14T13:05:58;7.20;;;6.90;;
3207;SDS011;1616;52.394;9.756;2024-02-14T13:08:24;7.27;;;6.63;;
3207;SDS011;1616;52.394;9.756;2024-02-14T13:10:50;6.57;;;6.13;;
3207;SDS011;1616;52.394;9.756;2024-02-14T13:13:15;6.77;;;6.40;;
3207;SDS011;1616;52.394;9.756;2024-02-14T13:15:41;7.00;;;6.57;;
3207;SDS011;1616;52.394;9.756;2024-02-14T13:18:09;7.73;;;7.10;;
3207;SDS011;1616;52.394;9.756;2024-02-14T13:20:34;6.43;;;6.13;;
3207;SDS011;1616;52.394;9.756;2024-02-14T13:23:01;7.23;;;6.83;;
3207;SDS011;1616;52.394;9.756;2024-02-14T13:25:28;6.30;;;5.90;;
3207;SDS011;1616;52.394;9.756;2024-02-14T13:27:54;7.37;;;6.87;;
3207;SDS011;1616;52.394;9.756;2024-02-14T13:30:20;7.37;;;7.07;;
3207;SDS011;1616;52.394;9.756;2024-02-14T13:32:47;6.67;;;6.13;;
3207;SDS011;1616;52.394;9.756;2024-02-14T13:35:13;7.23;;;6.53;;
3207;SDS011;1616;52.394;9.756;2024-02-14T13:37:40;7.07;;;6.67;;
3207;SDS011;1616;52.394;9.756;2024-02-14T13:40:06;6.80;;;6.40;;
3207;SDS011;1616;52.394;9.756;2024-02-14T13:42:36;7.37;;;6.30;;
3207;SDS011;1616;52.394;9.756;2024-02-14T13:45:03;6.37;;;6.07;;
3207;SDS011;1616;52.394;9.756;2024-02-14T13:47:36;7.33;;;6.93;;
3207;SDS011;1616;52.394;9.756;2024-02-14T13:50:07;5.60;;;5.30;;
3207;SDS011;1616;52.394;9.756;2024-02-14T13:52:34;6.33;;;5.50;;
3207;SDS011;1616;52.394;9.756;2024-02-14T13:55:05;7.00;;;6.47;;
3207;SDS011;1616;52.394;9.756;2024-02-14T13:57:38;6.73;;;6.07;;
3207;SDS011;1616;52.394;9.756;2024-02-14T14:00:08;6.00;;;5.60;;
3207;SDS011;1616;52.394;9.756;2024-02-14T14:02:37;5.50;;;5.10;;
3207;SDS011;1616;52.394;9.756;2024-02-14T14:05:12;6.10;;;5.43;;
3207;SDS011;1616;52.394;9.756;2024-02-14T14:07:38;5.67;;;5.00;;
3207;SDS011;1616;52.394;9.756;2024-02-14T14:10:10;5.60;;;4.73;;
3207;SDS011;1616;52.394;9.756;2024-02-14T14:12:36;4.33;;;3.97;;
3207;SDS011;1616;52.394;9.756;2024-02-14T14:15:02;7.33;;;4.07;;
3207;SDS011;1616;52.394;9.756;2024-02-14T14:17:29;4.07;;;3.77;;
3207;SDS011;1616;52.394;9.756;2024-02-14T14:19:55;3.93;;;3.63;;
3207;SDS011;1616;52.394;9.756;2024-02-14T14:22:21;3.03;;;2.83;;
3207;SDS011;1616;52.394;9.756;2024-02-14T14:24:46;3.30;;;3.10;;
3207;SDS011;1616;52.394;9.756;2024-02-14T14:27:12;3.03;;;2.83;;
3207;SDS011;1616;52.394;9.756;2024-02-14T14:29:39;3.23;;;3.03;;
3207;SDS011;1616;52.394;9.756;2024-02-14T14:32:09;3.00;;;2.80;;
3207;SDS011;1616;52.394;9.756;2024-02-14T14:34:35;3.53;;;3.23;;
3207;SDS011;1616;52.394;9.756;2024-02-14T14:37:02;5.27;;;4.90;;
3207;SDS011;1616;52.394;9.756;2024-02-14T14:39:28;3.63;;;2.87;;
3207;SDS011;1616;52.394;9.756;2024-02-14T14:41:53;3.80;;;3.60;;
3207;SDS011;1616;52.394;9.756;2024-02-14T14:44:23;4.50;;;3.50;;
3207;SDS011;1616;52.394;9.756;2024-02-14T14:46:53;3.63;;;3.43;;
3207;SDS011;1616;52.394;9.756;2024-02-14T14:49:20;4.30;;;3.40;;
3207;SDS011;1616;52.394;9.756;2024-02-14T14:51:45;3.50;;;3.30;;
3207;SDS011;1616;52.394;9.756;2024-02-14T14:54:11;3.77;;;3.57;;
3207;SDS011;1616;52.394;9.756;2024-02-14T14:56:38;4.37;;;4.17;;
3207;SDS011;1616;52.394;9.756;2024-02-14T14:59:04;4.30;;;3.90;;
3207;SDS011;1616;52.394;9.756;2024-02-14T15:01:31;5.10;;;4.90;;
3207;SDS011;1616;52.394;9.756;2024-02-14T15:03:58;3.40;;;3.20;;
3207;SDS011;1616;52.394;9.756;2024-02-14T15:06:24;3.40;;;3.20;;
3207;SDS011;1616;52.394;9.756;2024-02-14T15:08:50;3.40;;;3.10;;
3207;SDS011;1616;52.394;9.756;2024-02-14T15:11:16;3.10;;;2.90;;